sensor_id;sensor_type;location;lat;lon;timestamp;pressure;altitude;pressure_sealevel;temperature;humidity
48517;BME280;34310;51.904;4.256;2022-08-27T00:01:41;101908.38;;;24.26;57.35
48517;BME280;34310;51.904;4.256;2022-08-27T00:04:08;101908.44;;;24.28;57.02
48517;BME280;34310;51.904;4.256;2022-08-27T00:06:36;101911.91;;;24.27;57.41
48517;BME280;34310;51.904;4.256;2022-08-27T00:09:04;101912.75;;;24.26;57.21
48517;BME280;34310;51.904;4.256;2022-08-27T00:11:31;101911.91;;;24.27;57.41
48517;BME280;34310;51.904;4.256;2022-08-27T00:13:59;101907.47;;;24.26;57.44
48517;BME280;34310;51.904;4.256;2022-08-27T00:16:26;101905.69;;;24.25;57.46
48517;BME280;34310;51.904;4.256;2022-08-27T00:18:56;101905.63;;;24.23;57.60
48517;BME280;34310;51.904;4.256;2022-08-27T00:21:25;101905.63;;;24.23;57.56
48517;BME280;34310;51.904;4.256;2022-08-27T00:23:53;101899.47;;;24.23;57.41
48517;BME280;34310;51.904;4.256;2022-08-27T00:26:20;101904.69;;;24.21;57.67
48517;BME280;34310;51.904;4.256;2022-08-27T00:28:48;101903.78;;;24.21;57.29
48517;BME280;34310;51.904;4.256;2022-08-27T00:31:15;101898.50;;;24.21;57.49
48517;BME280;34310;51.904;4.256;2022-08-27T00:33:43;101894.94;;;24.19;57.55
48517;BME280;34310;51.904;4.256;2022-08-27T00:36:12;101894.94;;;24.19;57.64
48517;BME280;34310;51.904;4.256;2022-08-27T00:38:40;101894.03;;;24.18;57.91
48517;BME280;34310;51.904;4.256;2022-08-27T00:41:09;101895.78;;;24.18;57.63
48517;BME280;34310;51.904;4.256;2022-08-27T00:43:54;101896.59;;;24.15;57.88
48517;BME280;34310;51.904;4.256;2022-08-27T00:49:01;101901.81;;;24.14;57.87
48517;BME280;34310;51.904;4.256;2022-08-27T00:51:30;101905.28;;;24.13;57.87
48517;BME280;34310;51.904;4.256;2022-08-27T00:53:58;101902.66;;;24.13;57.82
48517;BME280;34310;51.904;4.256;2022-08-27T00:56:28;101903.56;;;24.13;57.91
48517;BME280;34310;51.904;4.256;2022-08-27T00:58:57;101902.66;;;24.13;57.73
48517;BME280;34310;51.904;4.256;2022-08-27T01:01:30;101903.50;;;24.12;58.09
48517;BME280;34310;51.904;4.256;2022-08-27T01:04:03;101907.00;;;24.10;57.90
48517;BME280;34310;51.904;4.256;2022-08-27T01:06:36;101906.94;;;24.09;58.15
48517;BME280;34310;51.904;4.256;2022-08-27T01:09:11;101905.16;;;24.08;58.02
48517;BME280;34310;51.904;4.256;2022-08-27T01:11:40;101898.09;;;24.07;58.07
48517;BME280;34310;51.904;4.256;2022-08-27T01:14:07;101906.00;;;24.07;57.96
48517;BME280;34310;51.904;4.256;2022-08-27T01:16:41;101907.69;;;24.05;58.22
48517;BME280;34310;51.904;4.256;2022-08-27T01:24:51;101903.25;;;24.04;58.22
48517;BME280;34310;51.904;4.256;2022-08-27T01:27:22;101911.13;;;24.02;58.42
48517;BME280;34310;51.904;4.256;2022-08-27T01:29:51;101904.91;;;24.00;58.18
48517;BME280;34310;51.904;4.256;2022-08-27T01:32:30;101905.81;;;24.01;58.43
48517;BME280;34310;51.904;4.256;2022-08-27T01:34:58;101901.38;;;24.00;58.37
48517;BME280;34310;51.904;4.256;2022-08-27T01:37:27;101899.63;;;24.00;58.39
48517;BME280;34310;51.904;4.256;2022-08-27T01:39:56;101901.38;;;24.00;58.25
48517;BME280;34310;51.904;4.256;2022-08-27T01:42:36;101901.28;;;23.98;58.46
48517;BME280;34310;51.904;4.256;2022-08-27T01:45:11;101901.25;;;23.97;58.42
48517;BME280;34310;51.904;4.256;2022-08-27T01:47:39;101896.88;;;23.97;58.39
48517;BME280;34310;51.904;4.256;2022-08-27T01:50:17;101897.75;;;23.98;58.46
48517;BME280;34310;51.904;4.256;2022-08-27T01:52:45;101891.59;;;23.97;58.57
48517;BME280;34310;51.904;4.256;2022-08-27T01:55:15;101893.34;;;23.97;58.50
48517;BME280;34310;51.904;4.256;2022-08-27T01:57:44;101895.91;;;23.95;58.63
48517;BME280;34310;51.904;4.256;2022-08-27T02:00:22;101895.03;;;23.95;58.40
48517;BME280;34310;51.904;4.256;2022-08-27T02:02:50;101894.13;;;23.94;58.54
48517;BME280;34310;51.904;4.256;2022-08-27T02:05:18;101894.13;;;23.94;58.49
48517;BME280;34310;51.904;4.256;2022-08-27T02:07:46;101893.19;;;23.92;58.68
48517;BME280;34310;51.904;4.256;2022-08-27T02:10:16;101889.69;;;23.93;58.53
48517;BME280;34310;51.904;4.256;2022-08-27T02:12:45;101887.84;;;23.91;58.57
48517;BME280;34310;51.904;4.256;2022-08-27T02:15:13;101894.03;;;23.91;58.77
48517;BME280;34310;51.904;4.256;2022-08-27T02:17:41;101900.16;;;23.90;58.54
48517;BME280;34310;51.904;4.256;2022-08-27T02:20:09;101889.56;;;23.89;58.78
48517;BME280;34310;51.904;4.256;2022-08-27T02:22:37;101888.69;;;23.90;58.59
48517;BME280;34310;51.904;4.256;2022-08-27T02:25:06;101884.28;;;23.89;58.91
48517;BME280;34310;51.904;4.256;2022-08-27T02:27:36;101889.56;;;23.89;58.89
48517;BME280;34310;51.904;4.256;2022-08-27T02:30:04;101886.88;;;23.87;58.57
48517;BME280;34310;51.904;4.256;2022-08-27T02:32:31;101880.66;;;23.85;58.71
48517;BME280;34310;51.904;4.256;2022-08-27T02:34:59;101881.53;;;23.86;58.70
48517;BME280;34310;51.904;4.256;2022-08-27T02:37:27;101880.59;;;23.84;58.77
48517;BME280;34310;51.904;4.256;2022-08-27T02:39:54;101871.78;;;23.83;58.74
48517;BME280;34310;51.904;4.256;2022-08-27T02:42:22;101875.31;;;23.84;58.86
48517;BME280;34310;51.904;4.256;2022-08-27T02:44:49;101868.25;;;23.83;58.94
48517;BME280;34310;51.904;4.256;2022-08-27T02:47:16;101869.16;;;23.83;58.81
48517;BME280;34310;51.904;4.256;2022-08-27T02:49:44;101865.56;;;23.81;58.65
48517;BME280;34310;51.904;4.256;2022-08-27T02:52:11;101869.94;;;23.81;58.79
48517;BME280;34310;51.904;4.256;2022-08-27T02:54:39;101869.06;;;23.80;58.87
48517;BME280;34310;51.904;4.256;2022-08-27T02:57:06;101862.00;;;23.79;58.92
48517;BME280;34310;51.904;4.256;2022-08-27T02:59:34;101858.47;;;23.78;58.89
48517;BME280;34310;51.904;4.256;2022-08-27T03:02:02;101867.25;;;23.79;58.79
48517;BME280;34310;51.904;4.256;2022-08-27T03:04:30;101860.19;;;23.78;58.80
48517;BME280;34310;51.904;4.256;2022-08-27T03:06:57;101860.09;;;23.75;58.72
48517;BME280;34310;51.904;4.256;2022-08-27T03:09:25;101858.34;;;23.75;59.14
48517;BME280;34310;51.904;4.256;2022-08-27T03:11:52;101860.09;;;23.75;59.04
48517;BME280;34310;51.904;4.256;2022-08-27T03:14:19;101860.03;;;23.73;59.07
48517;BME280;34310;51.904;4.256;2022-08-27T03:16:47;101857.38;;;23.72;59.01
48517;BME280;34310;51.904;4.256;2022-08-27T03:19:14;101863.47;;;23.71;59.20
48517;BME280;34310;51.904;4.256;2022-08-27T03:21:50;101865.28;;;23.72;59.02
48517;BME280;34310;51.904;4.256;2022-08-27T03:24:21;101863.47;;;23.71;59.21
48517;BME280;34310;51.904;4.256;2022-08-27T03:26:48;101860.75;;;23.69;59.29
48517;BME280;34310;51.904;4.256;2022-08-27T03:29:20;101866.88;;;23.68;59.20
48517;BME280;34310;51.904;4.256;2022-08-27T03:31:47;101862.50;;;23.69;59.14
48517;BME280;34310;51.904;4.256;2022-08-27T03:34:14;101858.97;;;23.68;59.02
48517;BME280;34310;51.904;4.256;2022-08-27T03:36:45;101854.53;;;23.67;59.39
48517;BME280;34310;51.904;4.256;2022-08-27T03:39:14;101861.56;;;23.67;59.35
48517;BME280;34310;51.904;4.256;2022-08-27T03:41:42;101850.97;;;23.65;59.06
48517;BME280;34310;51.904;4.256;2022-08-27T03:44:22;101850.06;;;23.65;59.39
48517;BME280;34310;51.904;4.256;2022-08-27T03:46:50;101851.81;;;23.64;59.38
48517;BME280;34310;51.904;4.256;2022-08-27T03:49:20;101859.66;;;23.63;59.20
48517;BME280;34310;51.904;4.256;2022-08-27T03:51:49;101850.88;;;23.62;59.35
48517;BME280;34310;51.904;4.256;2022-08-27T03:54:17;101859.66;;;23.63;59.16
48517;BME280;34310;51.904;4.256;2022-08-27T03:56:45;101852.59;;;23.62;59.28
48517;BME280;34310;51.904;4.256;2022-08-27T03:59:13;101857.88;;;23.62;59.18
48517;BME280;34310;51.904;4.256;2022-08-27T04:01:42;101856.97;;;23.61;59.26
48517;BME280;34310;51.904;4.256;2022-08-27T04:04:11;101862.19;;;23.60;59.18
48517;BME280;34310;51.904;4.256;2022-08-27T04:06:39;101865.72;;;23.60;59.25
48517;BME280;34310;51.904;4.256;2022-08-27T04:09:07;101855.13;;;23.59;59.32
48517;BME280;34310;51.904;4.256;2022-08-27T04:11:34;101860.41;;;23.59;59.21
48517;BME280;34310;51.904;4.256;2022-08-27T04:14:06;101860.38;;;23.57;59.63
48517;BME280;34310;51.904;4.256;2022-08-27T04:16:54;101856.84;;;23.57;59.28
48517;BME280;34310;51.904;4.256;2022-08-27T04:19:23;101856.75;;;23.55;59.52
48517;BME280;34310;51.904;4.256;2022-08-27T04:21:58;101864.66;;;23.55;59.20
48517;BME280;34310;51.904;4.256;2022-08-27T04:24:27;101862.94;;;23.56;59.47
48517;BME280;34310;51.904;4.256;2022-08-27T04:26:54;101861.97;;;23.54;59.68
48517;BME280;34310;51.904;4.256;2022-08-27T04:29:22;101858.44;;;23.53;59.37
48517;BME280;34310;51.904;4.256;2022-08-27T04:31:49;101862.81;;;23.53;59.68
48517;BME280;34310;51.904;4.256;2022-08-27T04:34:17;101862.75;;;23.51;59.61
48517;BME280;34310;51.904;4.256;2022-08-27T04:36:45;101866.28;;;23.52;59.53
48517;BME280;34310;51.904;4.256;2022-08-27T04:39:13;101865.34;;;23.49;59.37
48517;BME280;34310;51.904;4.256;2022-08-27T04:41:41;101870.66;;;23.51;59.46
48517;BME280;34310;51.904;4.256;2022-08-27T04:44:09;101873.25;;;23.49;59.51
48517;BME280;34310;51.904;4.256;2022-08-27T04:46:39;101872.31;;;23.47;59.44
48517;BME280;34310;51.904;4.256;2022-08-27T04:49:12;101867.03;;;23.47;59.47
48517;BME280;34310;51.904;4.256;2022-08-27T04:51:41;101866.97;;;23.46;59.34
48517;BME280;34310;51.904;4.256;2022-08-27T04:54:10;101872.25;;;23.46;59.49
48517;BME280;34310;51.904;4.256;2022-08-27T04:56:38;101871.34;;;23.45;59.73
48517;BME280;34310;51.904;4.256;2022-08-27T04:59:08;101881.91;;;23.45;59.35
48517;BME280;34310;51.904;4.256;2022-08-27T05:01:37;101873.09;;;23.45;59.68
48517;BME280;34310;51.904;4.256;2022-08-27T05:04:05;101881.00;;;23.45;59.70
48517;BME280;34310;51.904;4.256;2022-08-27T05:06:34;101876.59;;;23.44;59.47
48517;BME280;34310;51.904;4.256;2022-08-27T05:09:04;101881.84;;;23.44;59.30
48517;BME280;34310;51.904;4.256;2022-08-27T05:11:32;101885.31;;;23.43;59.62
48517;BME280;34310;51.904;4.256;2022-08-27T05:14:09;101884.34;;;23.41;59.85
48517;BME280;34310;51.904;4.256;2022-08-27T05:16:37;101887.88;;;23.41;59.54
48517;BME280;34310;51.904;4.256;2022-08-27T05:19:07;101887.81;;;23.40;59.72
48517;BME280;34310;51.904;4.256;2022-08-27T05:21:36;101892.25;;;23.41;59.71
48517;BME280;34310;51.904;4.256;2022-08-27T05:24:06;101887.06;;;23.42;59.09
48517;BME280;34310;51.904;4.256;2022-08-27T05:26:34;101889.75;;;23.44;59.43
48517;BME280;34310;51.904;4.256;2022-08-27T05:29:03;101889.63;;;23.41;59.27
48517;BME280;34310;51.904;4.256;2022-08-27T05:31:32;101887.81;;;23.40;59.33
48517;BME280;34310;51.904;4.256;2022-08-27T05:34:01;101881.72;;;23.41;59.44
48517;BME280;34310;51.904;4.256;2022-08-27T05:36:36;101886.19;;;23.42;59.13
48517;BME280;34310;51.904;4.256;2022-08-27T05:39:14;101886.09;;;23.40;59.18
48517;BME280;34310;51.904;4.256;2022-08-27T05:41:42;101887.88;;;23.41;59.26
48517;BME280;34310;51.904;4.256;2022-08-27T05:44:09;101890.47;;;23.40;59.10
48517;BME280;34310;51.904;4.256;2022-08-27T05:46:56;101888.72;;;23.40;59.14
48517;BME280;34310;51.904;4.256;2022-08-27T05:49:24;101886.09;;;23.40;59.16
48517;BME280;34310;51.904;4.256;2022-08-27T05:51:51;101885.19;;;23.40;59.14
48517;BME280;34310;51.904;4.256;2022-08-27T05:54:19;101883.44;;;23.40;59.11
48517;BME280;34310;51.904;4.256;2022-08-27T05:56:47;101885.19;;;23.40;59.04
48517;BME280;34310;51.904;4.256;2022-08-27T05:59:18;101879.91;;;23.40;59.11
48517;BME280;34310;51.904;4.256;2022-08-27T06:02:05;101877.22;;;23.38;59.05
48517;BME280;34310;51.904;4.256;2022-08-27T06:04:33;101876.34;;;23.38;59.08
48517;BME280;34310;51.904;4.256;2022-08-27T06:07:01;101883.41;;;23.39;59.14
48517;BME280;34310;51.904;4.256;2022-08-27T06:09:29;101886.88;;;23.38;59.12
48517;BME280;34310;51.904;4.256;2022-08-27T06:11:58;101883.41;;;23.39;58.89
48517;BME280;34310;51.904;4.256;2022-08-27T06:14:26;101888.66;;;23.39;59.17
48517;BME280;34310;51.904;4.256;2022-08-27T06:16:54;101887.78;;;23.38;58.78
48517;BME280;34310;51.904;4.256;2022-08-27T06:19:22;101886.88;;;23.38;58.84
48517;BME280;34310;51.904;4.256;2022-08-27T06:21:49;101886.88;;;23.38;58.88
48517;BME280;34310;51.904;4.256;2022-08-27T06:24:35;101886.81;;;23.36;58.71
48517;BME280;34310;51.904;4.256;2022-08-27T06:27:03;101888.63;;;23.37;59.13
48517;BME280;34310;51.904;4.256;2022-08-27T06:29:30;101885.09;;;23.37;58.93
48517;BME280;34310;51.904;4.256;2022-08-27T06:31:57;101886.81;;;23.36;58.98
48517;BME280;34310;51.904;4.256;2022-08-27T06:34:25;101896.53;;;23.37;58.88
48517;BME280;34310;51.904;4.256;2022-08-27T06:36:52;101893.88;;;23.37;59.01
48517;BME280;34310;51.904;4.256;2022-08-27T06:39:20;101885.03;;;23.35;59.13
48517;BME280;34310;51.904;4.256;2022-08-27T06:41:47;101888.63;;;23.37;59.00
48517;BME280;34310;51.904;4.256;2022-08-27T06:44:16;101887.72;;;23.37;58.88
48517;BME280;34310;51.904;4.256;2022-08-27T06:46:44;101888.63;;;23.37;58.93
48517;BME280;34310;51.904;4.256;2022-08-27T06:49:12;101894.72;;;23.36;58.87
48517;BME280;34310;51.904;4.256;2022-08-27T06:51:42;101887.78;;;23.38;58.91
48517;BME280;34310;51.904;4.256;2022-08-27T06:54:10;101890.34;;;23.37;58.84
48517;BME280;34310;51.904;4.256;2022-08-27T06:56:39;101888.63;;;23.37;58.95
48517;BME280;34310;51.904;4.256;2022-08-27T06:59:08;101889.50;;;23.38;59.04
48517;BME280;34310;51.904;4.256;2022-08-27T07:01:40;101888.66;;;23.39;58.75
48517;BME280;34310;51.904;4.256;2022-08-27T07:04:11;101887.78;;;23.38;58.60
48517;BME280;34310;51.904;4.256;2022-08-27T07:06:39;101895.72;;;23.40;58.56
48517;BME280;34310;51.904;4.256;2022-08-27T07:09:08;101892.19;;;23.39;58.75
48517;BME280;34310;51.904;4.256;2022-08-27T07:11:36;101895.72;;;23.40;58.74
48517;BME280;34310;51.904;4.256;2022-08-27T07:14:06;101897.53;;;23.41;58.68
48517;BME280;34310;51.904;4.256;2022-08-27T07:16:34;101894.97;;;23.42;58.69
48517;BME280;34310;51.904;4.256;2022-08-27T07:19:04;101897.66;;;23.44;58.61
48517;BME280;34310;51.904;4.256;2022-08-27T07:21:33;101892.44;;;23.45;58.28
48517;BME280;34310;51.904;4.256;2022-08-27T07:24:02;101894.25;;;23.46;58.30
48517;BME280;34310;51.904;4.256;2022-08-27T07:26:32;101899.63;;;23.49;58.16
48517;BME280;34310;51.904;4.256;2022-08-27T07:29:01;101896.13;;;23.51;58.44
48517;BME280;34310;51.904;4.256;2022-08-27T07:31:29;101902.41;;;23.54;58.72
48517;BME280;34310;51.904;4.256;2022-08-27T07:33:56;101908.56;;;23.55;58.45
48517;BME280;34310;51.904;4.256;2022-08-27T07:36:23;101906.84;;;23.55;58.49
48517;BME280;34310;51.904;4.256;2022-08-27T07:38:51;101906.03;;;23.56;58.21
48517;BME280;34310;51.904;4.256;2022-08-27T07:41:28;101915.78;;;23.59;58.76
48517;BME280;34310;51.904;4.256;2022-08-27T07:43:58;101910.50;;;23.59;58.59
48517;BME280;34310;51.904;4.256;2022-08-27T07:46:45;101916.66;;;23.59;58.45
48517;BME280;34310;51.904;4.256;2022-08-27T07:49:16;101911.41;;;23.59;58.79
48517;BME280;34310;51.904;4.256;2022-08-27T07:51:44;101911.41;;;23.59;58.45
48517;BME280;34310;51.904;4.256;2022-08-27T07:54:12;101914.09;;;23.61;58.65
48517;BME280;34310;51.904;4.256;2022-08-27T07:56:40;101917.56;;;23.60;58.62
48517;BME280;34310;51.904;4.256;2022-08-27T07:59:07;101920.25;;;23.61;58.68
48517;BME280;34310;51.904;4.256;2022-08-27T08:01:35;101923.78;;;23.62;58.70
48517;BME280;34310;51.904;4.256;2022-08-27T08:04:02;101921.16;;;23.62;58.59
48517;BME280;34310;51.904;4.256;2022-08-27T08:06:30;101928.22;;;23.63;58.45
48517;BME280;34310;51.904;4.256;2022-08-27T08:08:58;101930.00;;;23.64;58.31
48517;BME280;34310;51.904;4.256;2022-08-27T08:11:26;101930.91;;;23.64;58.55
48517;BME280;34310;51.904;4.256;2022-08-27T08:13:53;101934.44;;;23.65;58.77
48517;BME280;34310;51.904;4.256;2022-08-27T08:16:23;101930.09;;;23.67;58.62
48517;BME280;34310;51.904;4.256;2022-08-27T08:18:57;101935.38;;;23.67;58.67
48517;BME280;34310;51.904;4.256;2022-08-27T08:21:26;101931.00;;;23.67;58.77
48517;BME280;34310;51.904;4.256;2022-08-27T08:23:53;101938.06;;;23.68;58.88
48517;BME280;34310;51.904;4.256;2022-08-27T08:26:21;101941.66;;;23.70;58.91
48517;BME280;34310;51.904;4.256;2022-08-27T08:28:49;101936.34;;;23.69;58.65
48517;BME280;34310;51.904;4.256;2022-08-27T08:31:16;101946.13;;;23.71;58.63
48517;BME280;34310;51.904;4.256;2022-08-27T08:33:43;101941.66;;;23.70;58.99
48517;BME280;34310;51.904;4.256;2022-08-27T08:36:15;101944.38;;;23.72;58.85
48517;BME280;34310;51.904;4.256;2022-08-27T08:38:44;101941.75;;;23.72;58.52
48517;BME280;34310;51.904;4.256;2022-08-27T08:41:39;101940.91;;;23.73;59.01
48517;BME280;34310;51.904;4.256;2022-08-27T08:46:49;101940.06;;;23.74;59.04
48517;BME280;34310;51.904;4.256;2022-08-27T08:49:42;101944.44;;;23.73;58.84
48517;BME280;34310;51.904;4.256;2022-08-27T08:52:29;101943.75;;;23.79;58.53
48517;BME280;34310;51.904;4.256;2022-08-27T08:57:59;101946.53;;;23.84;58.38
48517;BME280;34310;51.904;4.256;2022-08-27T09:00:32;101949.16;;;23.84;58.40
48517;BME280;34310;51.904;4.256;2022-08-27T09:02:59;101949.22;;;23.85;57.97
48517;BME280;34310;51.904;4.256;2022-08-27T09:05:26;101956.28;;;23.86;58.06
48517;BME280;34310;51.904;4.256;2022-08-27T09:08:14;101952.81;;;23.87;58.10
48517;BME280;34310;51.904;4.256;2022-08-27T09:11:39;101951.97;;;23.88;57.89
48517;BME280;34310;51.904;4.256;2022-08-27T09:17:02;101958.22;;;23.92;57.84
48517;BME280;34310;51.904;4.256;2022-08-27T09:19:37;101965.28;;;23.93;57.54
48517;BME280;34310;51.904;4.256;2022-08-27T09:27:13;101964.56;;;23.97;57.57
48517;BME280;34310;51.904;4.256;2022-08-27T09:29:52;101961.97;;;23.98;57.24
48517;BME280;34310;51.904;4.256;2022-08-27T09:32:30;101966.41;;;23.99;57.21
48517;BME280;34310;51.904;4.256;2022-08-27T09:35:00;101962.06;;;24.00;57.28
48517;BME280;34310;51.904;4.256;2022-08-27T09:37:31;101954.94;;;23.99;57.09
48517;BME280;34310;51.904;4.256;2022-08-27T09:45:51;101952.53;;;24.05;56.82
48517;BME280;34310;51.904;4.256;2022-08-27T09:48:32;101956.03;;;24.04;56.95
48517;BME280;34310;51.904;4.256;2022-08-27T09:51:07;101945.47;;;24.04;57.09
48517;BME280;34310;51.904;4.256;2022-08-27T09:53:48;101952.50;;;24.03;56.98
48517;BME280;34310;51.904;4.256;2022-08-27T09:56:38;101948.97;;;24.03;57.04
48517;BME280;34310;51.904;4.256;2022-08-27T10:04:46;101955.84;;;23.99;57.62
48517;BME280;34310;51.904;4.256;2022-08-27T10:10:21;101954.06;;;23.98;57.73
48517;BME280;34310;51.904;4.256;2022-08-27T10:13:05;101949.63;;;23.97;57.38
48517;BME280;34310;51.904;4.256;2022-08-27T10:16:21;101954.00;;;23.97;57.63
48517;BME280;34310;51.904;4.256;2022-08-27T10:24:41;101947.88;;;23.98;57.51
48517;BME280;34310;51.904;4.256;2022-08-27T10:32:45;101946.38;;;24.04;56.80
48517;BME280;34310;51.904;4.256;2022-08-27T10:35:25;101942.03;;;24.06;56.81
48517;BME280;34310;51.904;4.256;2022-08-27T10:48:51;101944.81;;;24.11;56.18
48517;BME280;34310;51.904;4.256;2022-08-27T10:51:29;101945.78;;;24.13;56.11
48517;BME280;34310;51.904;4.256;2022-08-27T10:56:52;101937.94;;;24.16;56.02
48517;BME280;34310;51.904;4.256;2022-08-27T11:02:55;101932.78;;;24.19;55.91
48517;BME280;34310;51.904;4.256;2022-08-27T11:05:30;101939.84;;;24.20;56.16
48517;BME280;34310;51.904;4.256;2022-08-27T11:10:54;101936.41;;;24.23;55.86
48517;BME280;34310;51.904;4.256;2022-08-27T11:13:36;101933.75;;;24.23;55.50
48517;BME280;34310;51.904;4.256;2022-08-27T11:16:16;101932.06;;;24.25;55.75
48517;BME280;34310;51.904;4.256;2022-08-27T11:18:50;101939.13;;;24.26;55.45
48517;BME280;34310;51.904;4.256;2022-08-27T11:27:06;101936.53;;;24.27;55.75
48517;BME280;34310;51.904;4.256;2022-08-27T11:29:55;101927.81;;;24.28;55.47
48517;BME280;34310;51.904;4.256;2022-08-27T11:35:21;101924.28;;;24.28;55.17
48517;BME280;34310;51.904;4.256;2022-08-27T11:43:22;101927.03;;;24.31;55.41
48517;BME280;34310;51.904;4.256;2022-08-27T11:45:55;101923.56;;;24.32;55.40
48517;BME280;34310;51.904;4.256;2022-08-27T11:48:27;101918.28;;;24.32;55.46
48517;BME280;34310;51.904;4.256;2022-08-27T11:51:04;101915.69;;;24.33;55.48
48517;BME280;34310;51.904;4.256;2022-08-27T11:53:41;101917.53;;;24.36;55.05
48517;BME280;34310;51.904;4.256;2022-08-27T11:56:33;101919.28;;;24.35;54.89
48517;BME280;34310;51.904;4.256;2022-08-27T12:01:57;101914.03;;;24.37;55.26
48517;BME280;34310;51.904;4.256;2022-08-27T12:04:41;101906.16;;;24.38;55.14
48517;BME280;34310;51.904;4.256;2022-08-27T12:07:23;101916.81;;;24.42;55.36
48517;BME280;34310;51.904;4.256;2022-08-27T12:10:03;101914.22;;;24.43;55.07
48517;BME280;34310;51.904;4.256;2022-08-27T12:13:11;101921.34;;;24.46;54.87
48517;BME280;34310;51.904;4.256;2022-08-27T12:26:37;101924.88;;;24.46;54.93
48517;BME280;34310;51.904;4.256;2022-08-27T12:32:33;101918.69;;;24.46;54.40
48517;BME280;34310;51.904;4.256;2022-08-27T12:35:23;101924.88;;;24.46;54.51
48517;BME280;34310;51.904;4.256;2022-08-27T12:37:55;101924.03;;;24.47;54.93
48517;BME280;34310;51.904;4.256;2022-08-27T12:40:39;101924.88;;;24.46;54.80
48517;BME280;34310;51.904;4.256;2022-08-27T12:43:11;101922.25;;;24.46;54.90
48517;BME280;34310;51.904;4.256;2022-08-27T12:48:31;101912.53;;;24.45;54.94
48517;BME280;34310;51.904;4.256;2022-08-27T12:51:02;101917.81;;;24.45;54.97
48517;BME280;34310;51.904;4.256;2022-08-27T12:56:33;101910.78;;;24.46;54.92
48517;BME280;34310;51.904;4.256;2022-08-27T13:04:32;101915.97;;;24.43;54.67
48517;BME280;34310;51.904;4.256;2022-08-27T13:07:03;101918.59;;;24.43;55.10
48517;BME280;34310;51.904;4.256;2022-08-27T13:09:34;101915.97;;;24.43;55.24
48517;BME280;34310;51.904;4.256;2022-08-27T13:12:05;101916.88;;;24.43;55.14
48517;BME280;34310;51.904;4.256;2022-08-27T13:14:38;101913.31;;;24.43;54.94
48517;BME280;34310;51.904;4.256;2022-08-27T13:19:47;101912.44;;;24.42;54.96
48517;BME280;34310;51.904;4.256;2022-08-27T13:22:36;101914.22;;;24.43;55.03
48517;BME280;34310;51.904;4.256;2022-08-27T13:25:18;101911.59;;;24.43;55.41
48517;BME280;34310;51.904;4.256;2022-08-27T13:27:53;101910.69;;;24.43;54.90
48517;BME280;34310;51.904;4.256;2022-08-27T13:30:21;101916.81;;;24.42;54.71
48517;BME280;34310;51.904;4.256;2022-08-27T13:33:04;101914.19;;;24.42;55.19
48517;BME280;34310;51.904;4.256;2022-08-27T13:35:32;101910.69;;;24.43;55.25
48517;BME280;34310;51.904;4.256;2022-08-27T13:38:02;101909.78;;;24.42;55.00
48517;BME280;34310;51.904;4.256;2022-08-27T13:43:04;101915.97;;;24.43;54.75
48517;BME280;34310;51.904;4.256;2022-08-27T13:45:39;101915.06;;;24.42;55.13
48517;BME280;34310;51.904;4.256;2022-08-27T13:48:07;101915.97;;;24.43;55.07
48517;BME280;34310;51.904;4.256;2022-08-27T13:50:38;101916.88;;;24.43;55.28
48517;BME280;34310;51.904;4.256;2022-08-27T13:53:19;101918.59;;;24.43;55.38
48517;BME280;34310;51.904;4.256;2022-08-27T13:56:07;101920.31;;;24.40;55.31
48517;BME280;34310;51.904;4.256;2022-08-27T13:58:35;101926.53;;;24.43;55.31
48517;BME280;34310;51.904;4.256;2022-08-27T14:01:27;101925.63;;;24.42;55.00
48517;BME280;34310;51.904;4.256;2022-08-27T14:04:07;101920.34;;;24.42;54.91
48517;BME280;34310;51.904;4.256;2022-08-27T14:06:44;101919.41;;;24.40;55.27
48517;BME280;34310;51.904;4.256;2022-08-27T14:09:26;101916.78;;;24.40;54.91
48517;BME280;34310;51.904;4.256;2022-08-27T14:12:05;101915.94;;;24.41;54.98
48517;BME280;34310;51.904;4.256;2022-08-27T14:14:39;101913.28;;;24.41;55.26
48517;BME280;34310;51.904;4.256;2022-08-27T14:17:22;101916.78;;;24.40;55.26
48517;BME280;34310;51.904;4.256;2022-08-27T14:20:07;101922.06;;;24.40;54.96
48517;BME280;34310;51.904;4.256;2022-08-27T14:22:35;101915.94;;;24.41;55.57
48517;BME280;34310;51.904;4.256;2022-08-27T14:25:03;101918.50;;;24.39;55.51
48517;BME280;34310;51.904;4.256;2022-08-27T14:27:30;101916.78;;;24.40;55.69
48517;BME280;34310;51.904;4.256;2022-08-27T14:29:57;101922.06;;;24.40;55.58
48517;BME280;34310;51.904;4.256;2022-08-27T14:32:25;101925.53;;;24.39;55.59
48517;BME280;34310;51.904;4.256;2022-08-27T14:34:52;101922.06;;;24.40;55.51
48517;BME280;34310;51.904;4.256;2022-08-27T14:37:20;101926.44;;;24.39;55.70
48517;BME280;34310;51.904;4.256;2022-08-27T14:39:47;101927.28;;;24.38;55.52
48517;BME280;34310;51.904;4.256;2022-08-27T14:42:15;101926.44;;;24.39;55.66
48517;BME280;34310;51.904;4.256;2022-08-27T14:44:43;101922.91;;;24.39;55.70
48517;BME280;34310;51.904;4.256;2022-08-27T14:47:12;101927.34;;;24.40;55.64
48517;BME280;34310;51.904;4.256;2022-08-27T14:49:42;101923.75;;;24.38;55.83
48517;BME280;34310;51.904;4.256;2022-08-27T14:52:12;101931.66;;;24.38;55.96
48517;BME280;34310;51.904;4.256;2022-08-27T14:54:41;101931.66;;;24.38;55.78
48517;BME280;34310;51.904;4.256;2022-08-27T14:57:09;101933.47;;;24.39;55.62
48517;BME280;34310;51.904;4.256;2022-08-27T14:59:37;101929.94;;;24.38;55.73
48517;BME280;34310;51.904;4.256;2022-08-27T15:02:08;101923.75;;;24.38;55.87
48517;BME280;34310;51.904;4.256;2022-08-27T15:04:37;101937.84;;;24.38;55.89
48517;BME280;34310;51.904;4.256;2022-08-27T15:07:08;101933.41;;;24.37;55.98
48517;BME280;34310;51.904;4.256;2022-08-27T15:09:35;101930.78;;;24.37;55.66